createdAt,value
2017-11-10T00:01:44.255Z,6.38
2017-11-10T00:04:13.306Z,6.29
2017-11-10T00:06:42.338Z,6.26
2017-11-10T00:11:46.617Z,6.30
2017-11-10T00:14:16.664Z,6.33
2017-11-10T00:19:21.913Z,6.26
2017-11-10T00:21:50.955Z,6.23
2017-11-10T00:26:55.276Z,6.23
2017-11-10T00:29:24.309Z,6.23
2017-11-10T00:31:53.348Z,6.24
2017-11-10T00:34:22.397Z,6.20
2017-11-10T00:36:51.452Z,6.29
2017-11-10T00:41:55.675Z,6.22
2017-11-10T00:44:24.778Z,6.13
2017-11-10T00:46:53.858Z,6.01
2017-11-10T00:49:22.890Z,5.93
2017-11-10T00:51:51.919Z,5.85
2017-11-10T00:56:57.203Z,6.02
2017-11-10T00:59:27.215Z,6.15
2017-11-10T01:01:56.299Z,6.21
2017-11-10T01:04:26.348Z,6.17
2017-11-10T01:06:55.391Z,6.24
2017-11-10T01:11:59.640Z,6.22
2017-11-10T01:14:29.606Z,6.28
2017-11-10T01:17:00.612Z,6.27
2017-11-10T01:19:29.651Z,6.17
2017-11-10T01:21:58.704Z,6.22
2017-11-10T01:24:27.768Z,6.25
2017-11-10T01:26:58.536Z,6.21
2017-11-10T01:29:27.603Z,6.21
2017-11-10T01:31:56.693Z,6.34
2017-11-10T01:34:25.771Z,6.27
2017-11-10T01:36:54.802Z,6.11
2017-11-10T01:39:23.833Z,6.06
2017-11-10T01:41:52.897Z,6.04
2017-11-10T01:44:21.942Z,6.05
2017-11-10T01:46:50.971Z,6.04
2017-11-10T01:49:27.787Z,6.06
2017-11-10T01:51:56.841Z,6.00
2017-11-10T01:54:25.881Z,6.07
2017-11-10T02:02:08.172Z,6.15
2017-11-10T02:04:37.213Z,6.15
2017-11-10T02:07:06.265Z,6.15
2017-11-10T02:09:35.308Z,6.15
2017-11-10T02:12:04.355Z,6.08
2017-11-10T02:14:33.399Z,6.08
2017-11-10T02:17:02.447Z,5.97
2017-11-10T02:19:31.474Z,5.95
2017-11-10T02:22:06.788Z,5.87
2017-11-10T02:27:11.076Z,6.01
2017-11-10T02:29:40.136Z,6.01
2017-11-10T02:32:09.192Z,6.04
2017-11-10T02:37:13.421Z,6.08
2017-11-10T02:39:43.432Z,6.03
2017-11-10T02:42:12.503Z,5.90
2017-11-10T02:44:41.563Z,5.76
2017-11-10T02:47:10.605Z,5.71
2017-11-10T02:49:40.623Z,5.73
2017-11-10T02:52:09.663Z,5.72
2017-11-10T02:57:18.168Z,5.93
2017-11-10T02:59:48.118Z,5.94
2017-11-10T03:04:52.363Z,5.85
2017-11-10T03:07:21.412Z,5.94
2017-11-10T03:09:50.435Z,5.92
2017-11-10T03:12:20.432Z,5.91
2017-11-10T03:14:49.510Z,5.87
2017-11-10T03:19:53.808Z,6.04
2017-11-10T03:22:22.926Z,6.15
2017-11-10T03:24:51.964Z,5.95
2017-11-10T03:27:21.035Z,5.90
2017-11-10T03:29:50.972Z,5.79
2017-11-10T03:32:20.018Z,5.91
2017-11-10T03:34:49.068Z,5.87
2017-11-10T03:37:18.121Z,5.87
2017-11-10T03:39:47.207Z,5.90
2017-11-10T03:42:17.204Z,5.95
2017-11-10T03:44:46.312Z,5.99
2017-11-10T03:47:15.353Z,5.98
2017-11-10T03:49:44.403Z,5.96
2017-11-10T03:52:13.464Z,5.97
2017-11-10T03:54:42.522Z,5.99
2017-11-10T03:57:13.562Z,5.96
2017-11-10T03:59:43.578Z,5.97
2017-11-10T04:02:12.635Z,6.01
2017-11-10T04:04:42.689Z,5.98
2017-11-10T04:07:11.750Z,6.04
2017-11-10T04:09:41.801Z,5.78
2017-11-10T04:12:10.823Z,5.59
2017-11-10T04:14:40.002Z,5.59
2017-11-10T04:17:09.091Z,5.69
2017-11-10T04:19:47.758Z,5.69
2017-11-10T04:24:52.053Z,5.88
2017-11-10T04:29:56.453Z,5.88
2017-11-10T04:32:25.497Z,5.83
2017-11-10T04:34:54.604Z,5.81
2017-11-10T04:37:24.625Z,5.78
2017-11-10T04:39:53.663Z,5.87
2017-11-10T04:42:22.724Z,5.90
2017-11-10T04:44:51.768Z,5.94
2017-11-10T04:47:20.816Z,5.88
2017-11-10T04:49:49.863Z,5.97
2017-11-10T04:52:18.913Z,5.94
2017-11-10T04:54:47.960Z,5.92
2017-11-10T04:57:18.017Z,5.87
2017-11-10T04:59:47.062Z,5.89
2017-11-10T05:04:51.312Z,6.04
2017-11-10T05:07:20.368Z,6.00
2017-11-10T05:09:53.200Z,5.91
2017-11-10T05:12:26.402Z,5.90
2017-11-10T05:14:55.576Z,5.90
2017-11-10T05:19:59.897Z,5.95
2017-11-10T05:22:28.940Z,5.93
2017-11-10T05:24:58.032Z,5.90
2017-11-10T05:27:27.080Z,5.84
2017-11-10T05:29:56.136Z,5.84
2017-11-10T05:32:25.173Z,5.87
2017-11-10T05:34:54.215Z,5.86
2017-11-10T05:37:24.244Z,5.92
2017-11-10T05:39:53.275Z,5.94
2017-11-10T05:44:57.614Z,6.02
2017-11-10T05:47:26.684Z,5.99
2017-11-10T05:49:55.773Z,5.96
2017-11-10T05:52:24.849Z,5.94
2017-11-10T05:54:53.879Z,5.91
2017-11-10T05:57:23.845Z,6.03
2017-11-10T05:59:52.915Z,6.01
2017-11-10T06:02:21.948Z,5.99
2017-11-10T06:04:51.040Z,5.97
2017-11-10T06:07:21.075Z,6.07
2017-11-10T06:09:50.128Z,6.00
2017-11-10T06:12:19.191Z,5.91
2017-11-10T06:14:50.256Z,5.90
2017-11-10T06:17:19.299Z,5.81
2017-11-10T06:19:49.335Z,5.82
2017-11-10T06:22:19.344Z,5.95
2017-11-10T06:24:50.305Z,5.98
2017-11-10T06:27:19.347Z,5.99
2017-11-10T06:29:48.391Z,6.03
2017-11-10T06:32:18.446Z,6.10
2017-11-10T06:34:47.512Z,5.99
2017-11-10T06:37:16.609Z,6.00
2017-11-10T06:39:48.671Z,5.99
2017-11-10T06:42:17.739Z,6.04
2017-11-10T06:44:46.806Z,6.11
2017-11-10T06:47:15.955Z,6.17
2017-11-10T06:49:44.991Z,6.20
2017-11-10T06:52:14.925Z,6.21
2017-11-10T06:57:19.220Z,6.34
2017-11-10T06:59:49.252Z,6.39
2017-11-10T07:02:18.303Z,6.44
2017-11-10T07:04:47.368Z,6.52
2017-11-10T07:07:17.465Z,6.42
2017-11-10T07:09:47.488Z,6.40
2017-11-10T07:12:18.431Z,6.37
2017-11-10T07:14:47.498Z,6.40
2017-11-10T07:17:16.604Z,6.43
2017-11-10T07:19:45.701Z,6.47
2017-11-10T07:22:14.747Z,6.49
2017-11-10T07:24:43.839Z,6.44
2017-11-10T07:27:13.863Z,6.48
2017-11-10T07:29:42.893Z,6.53
2017-11-10T07:32:11.972Z,6.42
2017-11-10T07:34:41.971Z,6.41
2017-11-10T07:37:11.263Z,6.34
2017-11-10T07:42:16.659Z,6.62
2017-11-10T07:44:45.753Z,6.43
2017-11-10T07:47:14.811Z,6.38
2017-11-10T07:49:43.847Z,6.44
2017-11-10T07:52:12.931Z,6.46
2017-11-10T07:54:42.960Z,6.50
2017-11-10T07:57:12.006Z,6.47
2017-11-10T07:59:41.051Z,6.54
2017-11-10T08:02:10.116Z,6.62
2017-11-10T08:04:40.203Z,6.63
2017-11-10T08:07:09.277Z,6.59
2017-11-10T08:09:38.328Z,6.43
2017-11-10T08:12:07.372Z,6.40
2017-11-10T08:14:36.561Z,6.52
2017-11-10T08:17:06.604Z,6.59
2017-11-10T08:19:35.663Z,6.62
2017-11-10T08:24:39.949Z,6.64
2017-11-10T08:27:09.144Z,6.75
2017-11-10T08:29:38.184Z,6.98
2017-11-10T08:32:08.165Z,7.04
2017-11-10T08:34:37.208Z,7.10
2017-11-10T08:37:06.287Z,7.17
2017-11-10T08:42:11.494Z,7.33
2017-11-10T08:44:40.581Z,7.47
2017-11-10T08:47:09.640Z,7.44
2017-11-10T08:49:38.710Z,7.60
2017-11-10T08:52:07.751Z,7.74
2017-11-10T08:54:36.794Z,7.89
2017-11-10T08:57:05.838Z,7.80
2017-11-10T08:59:34.896Z,7.61
2017-11-10T09:02:03.983Z,7.54
2017-11-10T09:04:33.036Z,7.45
2017-11-10T09:07:02.086Z,7.28
2017-11-10T09:09:32.113Z,7.20
2017-11-10T09:12:01.176Z,7.27
2017-11-10T09:14:30.197Z,7.49
2017-11-10T09:16:59.259Z,7.53
2017-11-10T09:19:32.623Z,7.79
2017-11-10T09:22:01.893Z,7.85
2017-11-10T09:24:30.936Z,7.75
2017-11-10T09:27:00.219Z,7.59
2017-11-10T09:32:11.235Z,7.67
2017-11-10T09:34:45.668Z,7.81
2017-11-10T09:37:20.651Z,7.78
2017-11-10T09:39:49.931Z,7.90
2017-11-10T09:45:14.737Z,7.93
2017-11-10T09:47:49.299Z,7.63
2017-11-10T09:50:25.634Z,7.75
2017-11-10T09:52:59.738Z,7.80
2017-11-10T09:55:28.780Z,7.74
2017-11-10T09:58:02.558Z,7.74
2017-11-10T10:00:49.296Z,7.66
2017-11-10T10:06:20.808Z,7.66
2017-11-10T10:08:55.717Z,7.67
2017-11-10T10:14:37.792Z,7.72
2017-11-10T10:17:12.501Z,8.01
2017-11-10T10:19:42.381Z,7.87
2017-11-10T10:24:52.685Z,8.25
2017-11-10T10:27:22.724Z,8.15
2017-11-10T10:29:51.800Z,7.85
2017-11-10T10:32:20.841Z,8.04
2017-11-10T10:34:49.888Z,8.07
2017-11-10T10:37:18.936Z,7.89
2017-11-10T10:39:47.980Z,7.95
2017-11-10T10:44:52.297Z,8.00
2017-11-10T10:47:21.397Z,7.92
2017-11-10T10:49:50.439Z,7.84
2017-11-10T10:52:19.545Z,7.96
2017-11-10T10:54:48.652Z,7.79
2017-11-10T10:57:17.704Z,7.60
2017-11-10T10:59:46.746Z,7.48
2017-11-10T11:02:15.784Z,7.36
2017-11-10T11:04:45.779Z,7.41
2017-11-10T11:07:14.879Z,7.56
2017-11-10T11:09:43.937Z,7.61
2017-11-10T11:12:12.979Z,7.61
2017-11-10T11:14:42.027Z,7.64
2017-11-10T11:17:11.505Z,7.63
2017-11-10T11:19:40.568Z,7.68
2017-11-10T11:22:10.460Z,7.44
2017-11-10T11:24:40.504Z,7.59
2017-11-10T11:27:10.271Z,7.50
2017-11-10T11:29:39.328Z,7.52
2017-11-10T11:32:09.757Z,7.49
2017-11-10T11:34:39.862Z,7.50
2017-11-10T11:37:10.110Z,7.52
2017-11-10T11:39:39.292Z,7.52
2017-11-10T11:42:10.130Z,7.49
2017-11-10T11:44:39.170Z,7.41
2017-11-10T11:47:09.702Z,7.22
2017-11-10T11:49:38.739Z,7.23
2017-11-10T11:52:08.444Z,7.29
2017-11-10T11:54:37.492Z,7.39
2017-11-10T11:57:07.764Z,7.45
2017-11-10T11:59:36.804Z,7.56
2017-11-10T12:02:06.135Z,7.71
2017-11-10T12:04:35.205Z,7.66
2017-11-10T12:07:04.229Z,7.68
2017-11-10T12:09:35.500Z,7.60
2017-11-10T12:12:04.585Z,7.66
2017-11-10T12:17:08.826Z,7.48
2017-11-10T12:19:39.693Z,7.39
2017-11-10T12:22:08.712Z,7.45
2017-11-10T12:24:39.745Z,7.49
2017-11-10T12:27:08.792Z,7.56
2017-11-10T12:29:40.253Z,7.44
2017-11-10T12:32:09.272Z,7.46
2017-11-10T12:34:39.786Z,7.31
2017-11-10T12:37:09.770Z,7.46
2017-11-10T12:39:38.876Z,7.35
2017-11-10T12:42:07.944Z,7.32
2017-11-10T12:44:37.205Z,7.33
2017-11-10T12:47:06.293Z,7.21
2017-11-10T12:49:36.972Z,7.17
2017-11-10T12:52:06.012Z,7.22
2017-11-10T12:54:43.368Z,7.19
2017-11-10T12:57:12.391Z,7.18
2017-11-10T12:59:42.264Z,7.11
2017-11-10T13:02:11.353Z,7.03
2017-11-10T13:04:42.096Z,6.93
2017-11-10T13:09:46.368Z,6.61
2017-11-10T13:14:50.832Z,6.51
2017-11-10T13:19:56.281Z,6.45
2017-11-10T13:22:25.310Z,6.30
2017-11-10T13:24:55.249Z,6.33
2017-11-10T13:27:24.277Z,6.26
2017-11-10T13:29:53.323Z,6.15
2017-11-10T13:32:22.393Z,6.02
2017-11-10T13:37:30.325Z,5.98
2017-11-10T13:39:59.479Z,5.89
2017-11-10T13:45:03.754Z,5.87
2017-11-10T13:50:09.097Z,5.80
2017-11-10T13:52:39.938Z,5.80
2017-11-10T13:55:08.987Z,5.69
2017-11-10T13:57:40.865Z,5.73
2017-11-10T14:00:09.913Z,5.60
2017-11-10T14:05:19.099Z,5.48
2017-11-10T14:07:48.175Z,5.46
2017-11-10T14:10:17.229Z,5.39
2017-11-10T14:17:57.739Z,5.20
2017-11-10T14:20:28.191Z,5.10
2017-11-10T14:22:57.268Z,5.01
2017-11-10T14:25:27.367Z,4.97
2017-11-10T14:27:56.410Z,4.98
2017-11-10T14:30:26.912Z,4.98
2017-11-10T14:32:55.953Z,4.97
2017-11-10T14:35:29.399Z,4.93
2017-11-10T14:37:58.421Z,4.92
2017-11-10T14:40:28.611Z,4.82
2017-11-10T14:42:57.799Z,4.85
2017-11-10T14:45:28.048Z,4.82
2017-11-10T14:47:57.059Z,4.75
2017-11-10T14:50:27.201Z,4.83
2017-11-10T14:52:56.236Z,4.77
2017-11-10T14:55:26.322Z,4.77
2017-11-10T14:57:56.264Z,4.79
2017-11-10T15:00:41.444Z,4.78
2017-11-10T15:05:46.714Z,4.78
2017-11-10T15:08:15.755Z,4.76
2017-11-10T15:10:45.823Z,4.80
2017-11-10T15:13:16.879Z,4.79
2017-11-10T15:15:45.919Z,4.77
2017-11-10T15:18:14.968Z,4.74
2017-11-10T15:20:51.627Z,4.81
2017-11-10T15:23:21.949Z,4.81
2017-11-10T15:25:51.012Z,4.82
2017-11-10T15:28:20.132Z,4.85
2017-11-10T15:30:49.180Z,4.86
2017-11-10T15:33:18.228Z,4.91
2017-11-10T15:35:47.346Z,4.93
2017-11-10T15:38:16.559Z,4.87
2017-11-10T15:40:45.612Z,4.92
2017-11-10T15:43:16.609Z,4.90
2017-11-10T15:45:46.686Z,4.97
2017-11-10T15:48:15.727Z,5.01
2017-11-10T15:50:48.162Z,4.95
2017-11-10T15:53:17.208Z,4.98
2017-11-10T15:55:46.253Z,4.97
2017-11-10T15:58:19.905Z,4.99
2017-11-10T16:03:24.164Z,4.97
2017-11-10T16:05:53.201Z,5.08
2017-11-10T16:08:22.264Z,5.13
2017-11-10T16:10:51.303Z,5.09
2017-11-10T16:13:21.473Z,5.16
2017-11-10T16:15:50.507Z,5.18
2017-11-10T16:18:19.552Z,5.20
2017-11-10T16:20:48.600Z,5.11
2017-11-10T16:23:19.802Z,5.09
2017-11-10T16:25:48.820Z,5.10
2017-11-10T16:28:22.022Z,5.15
2017-11-10T16:30:51.066Z,5.12
2017-11-10T16:33:26.151Z,5.05
2017-11-10T16:36:00.337Z,5.12
2017-11-10T16:38:32.066Z,5.18
2017-11-10T16:41:07.093Z,5.16
2017-11-10T16:43:43.914Z,5.14
2017-11-10T16:46:13.511Z,5.17
2017-11-10T16:51:26.195Z,5.26
2017-11-10T16:54:00.895Z,5.26
2017-11-10T16:56:30.663Z,5.19
2017-11-10T16:59:05.577Z,5.24
2017-11-10T17:04:11.492Z,5.21
2017-11-10T17:06:40.537Z,5.23
2017-11-10T17:09:09.585Z,5.25
2017-11-10T17:11:38.598Z,5.26
2017-11-10T17:14:07.688Z,5.29
2017-11-10T17:16:36.732Z,5.33
2017-11-10T17:19:05.761Z,5.35
2017-11-10T17:21:34.805Z,5.37
2017-11-10T17:24:03.830Z,5.33
2017-11-10T17:26:32.957Z,5.30
2017-11-10T17:29:03.919Z,5.27
2017-11-10T17:31:32.961Z,5.27
2017-11-10T17:34:06.959Z,5.23
2017-11-10T17:36:35.984Z,5.29
2017-11-10T17:41:43.126Z,5.31
2017-11-10T17:44:13.055Z,5.32
2017-11-10T17:46:42.181Z,5.41
2017-11-10T17:49:11.219Z,5.45
2017-11-10T17:51:40.391Z,5.43
2017-11-10T17:54:09.431Z,5.49
2017-11-10T17:56:38.467Z,5.47
2017-11-10T17:59:07.516Z,5.44
2017-11-10T18:01:36.546Z,5.44
2017-11-10T18:04:05.658Z,5.46
2017-11-10T18:06:35.430Z,5.45
2017-11-10T18:09:04.799Z,5.48
2017-11-10T18:11:33.978Z,5.53
2017-11-10T18:16:45.702Z,5.51
2017-11-10T18:19:14.729Z,5.51
2017-11-10T18:21:43.779Z,5.53
2017-11-10T18:24:12.816Z,5.50
2017-11-10T18:29:17.060Z,5.47
2017-11-10T18:31:47.031Z,5.37
2017-11-10T18:34:16.060Z,5.35
2017-11-10T18:39:20.344Z,5.40
2017-11-10T18:41:49.390Z,5.42
2017-11-10T18:44:18.433Z,5.41
2017-11-10T18:46:47.472Z,5.40
2017-11-10T18:49:24.923Z,5.47
2017-11-10T18:51:53.959Z,5.44
2017-11-10T18:54:22.980Z,5.50
2017-11-10T18:56:52.098Z,5.49
2017-11-10T18:59:21.171Z,5.49
2017-11-10T19:01:50.207Z,5.48
2017-11-10T19:04:19.476Z,5.52
2017-11-10T19:06:48.700Z,5.58
2017-11-10T19:09:17.736Z,5.61
2017-11-10T19:11:46.774Z,5.62
2017-11-10T19:14:15.803Z,5.65
2017-11-10T19:16:44.896Z,5.63
2017-11-10T19:19:13.920Z,5.61
2017-11-10T19:21:43.000Z,5.67
2017-11-10T19:24:12.126Z,5.73
2017-11-10T19:26:41.178Z,5.75
2017-11-10T19:29:10.195Z,5.79
2017-11-10T19:34:14.449Z,5.80
2017-11-10T19:36:43.495Z,5.79
2017-11-10T19:39:12.533Z,5.73
2017-11-10T19:44:16.751Z,5.76
2017-11-10T19:46:47.803Z,5.75
2017-11-10T19:49:16.930Z,5.71
2017-11-10T19:51:45.954Z,5.72
2017-11-10T19:54:14.985Z,5.69
2017-11-10T19:56:45.070Z,5.74
2017-11-10T19:59:14.284Z,5.77
2017-11-10T20:01:45.324Z,5.78
2017-11-10T20:04:14.390Z,5.77
2017-11-10T20:06:45.366Z,5.77
2017-11-10T20:09:14.476Z,5.78
2017-11-10T20:11:43.562Z,5.83
2017-11-10T20:14:13.804Z,5.79
2017-11-10T20:16:42.994Z,5.76
2017-11-10T20:21:47.346Z,5.72
2017-11-10T20:24:20.717Z,5.74
2017-11-10T20:26:53.909Z,5.68
2017-11-10T20:29:29.003Z,5.70
2017-11-10T20:32:02.427Z,5.68
2017-11-10T20:34:36.110Z,5.68
2017-11-10T20:37:13.279Z,5.66
2017-11-10T20:42:22.152Z,5.57
2017-11-10T20:44:56.093Z,5.56
2017-11-10T20:47:27.249Z,5.54
2017-11-10T20:50:00.926Z,5.54
2017-11-10T20:52:33.147Z,5.61
2017-11-10T20:57:40.733Z,5.64
2017-11-10T21:00:13.801Z,5.62
2017-11-10T21:02:47.656Z,5.62
2017-11-10T21:05:20.036Z,5.57
2017-11-10T21:08:02.224Z,5.51
2017-11-10T21:10:32.575Z,5.49
2017-11-10T21:13:05.291Z,5.52
2017-11-10T21:15:38.385Z,5.47
2017-11-10T21:18:11.386Z,5.49
2017-11-10T21:20:43.839Z,5.47
2017-11-10T21:23:17.749Z,5.51
2017-11-10T21:25:51.380Z,5.55
2017-11-10T21:28:24.988Z,5.53
2017-11-10T21:30:54.185Z,5.54
2017-11-10T21:33:26.064Z,5.54
2017-11-10T21:38:34.327Z,5.59
2017-11-10T21:41:10.874Z,5.56
2017-11-10T21:43:46.843Z,5.51
2017-11-10T21:46:19.692Z,5.62
2017-11-10T21:48:52.898Z,5.65
2017-11-10T21:51:27.213Z,5.66
2017-11-10T21:56:31.590Z,5.58
2017-11-10T21:59:00.643Z,5.51
2017-11-10T22:01:30.020Z,5.52
2017-11-10T22:03:59.206Z,5.53
2017-11-10T22:06:28.256Z,5.68
2017-11-10T22:08:57.356Z,5.71
2017-11-10T22:11:26.672Z,5.69
2017-11-10T22:13:56.684Z,5.72
2017-11-10T22:16:25.777Z,5.77
2017-11-10T22:18:54.814Z,5.81
2017-11-10T22:21:23.858Z,5.84
2017-11-10T22:23:53.040Z,5.82
2017-11-10T22:26:22.184Z,5.88
2017-11-10T22:28:51.805Z,5.84
2017-11-10T22:31:20.877Z,5.87
2017-11-10T22:33:49.951Z,5.87
2017-11-10T22:36:19.100Z,5.87
2017-11-10T22:38:49.127Z,5.95
2017-11-10T22:41:18.232Z,5.99
2017-11-10T22:43:47.323Z,5.95
2017-11-10T22:46:16.717Z,5.93
2017-11-10T22:48:50.224Z,5.94
2017-11-10T22:51:19.354Z,5.94
2017-11-10T22:53:48.464Z,5.88
2017-11-10T22:56:19.461Z,5.82
2017-11-10T22:58:49.514Z,5.87
2017-11-10T23:01:18.534Z,5.88
2017-11-10T23:03:47.673Z,5.86
2017-11-10T23:06:20.545Z,5.89
2017-11-10T23:08:52.244Z,5.82
2017-11-10T23:11:25.581Z,5.90
2017-11-10T23:13:57.945Z,5.90
2017-11-10T23:16:29.132Z,5.91
2017-11-10T23:18:59.149Z,5.92
2017-11-10T23:21:31.262Z,5.94
2017-11-10T23:24:02.443Z,5.95
2017-11-10T23:29:07.625Z,5.94
2017-11-10T23:31:40.084Z,5.92
2017-11-10T23:36:45.076Z,5.93
2017-11-10T23:39:18.305Z,5.95
2017-11-10T23:41:48.463Z,5.90
2017-11-10T23:46:56.500Z,5.93
2017-11-10T23:49:32.992Z,6.00
2017-11-10T23:52:05.537Z,5.98
2017-11-10T23:54:37.663Z,6.03
2017-11-10T23:57:10.977Z,6.05
2017-11-10T23:59:42.385Z,6.05
